Terminal Aerodrome Forecast
Issued by NWS

Home | Current Version | Previous Version | Text Only | Print | Product List | Glossary On
Versions: 1 2 3 4 5 6 7 8 9 10 11 12 13 14 15 16 17 18 19 20 21 22 23 24
000
FTUS45 KGJT 231744
TAFTEX
TAF
KTEX 231744Z 2318/2418 22010KT P6SM FEW070
     FM232000 19012G26KT P6SM SCT070
     FM240200 21010G21KT P6SM BKN080 WS020/24045KT
     FM241000 18006KT P6SM FEW060
     FM241600 20010G21KT P6SM SCT060=

USA.gov is the U.S. government's official web portal to all federal, state and local government web resources and services.